Tiempo atmosférico en la estación meteorológica de Valdezcaray, estación de esquí, La Rioja (1630 m.)



Fecha
DESCASC
Temp. máxima en grados centígrados (hora)
DESCASC
Temp. mínima en grados centígrados (hora)
DESCASC
Temp. media en grados centígrados
DESCASC
Racha de viento máxima en m/sg (hora)
DESCASC
Velocidad máxima media en intervalos de 10 minutos(hora)
DESCASC
Precipitaciones diarias en mm
DESCASC
Precipitaciones de 00:00 a 06:00 en mm
DESCASC
Precipitaciones de 06:00 a 12:00 en mm
DESCASC
Precipitaciones de 12:00 a 18:00 en mm
DESCASC
Precipitaciones de 18:00 a 24:00 en mm
DESCASC
15-08-2019 17 (19:10) 10.5 (03:10) 13.8 6.11 (16:20) 2.78 (23:59) 0 0 0 0 0
14-08-2019 21.8 (18:10) 11 (00:00) 16.4 8.61 (15:50) 3.89 (19:00) 0 0 0 0 0
13-08-2019 14.9 (18:20) 4.3 (00:00) 9.6 5.28 (05:10) 3.89 (04:10) 0 0 0 0 0
12-08-2019 11.5 (16:10) 4.7 (00:00) 8.1 8.89 (16:20) 4.17 (16:20) 0.2 0.2 0 0 0
11-08-2019 16.3 (02:20) 7.9 (00:00) 12.1 15.28 (01:40) 7.22 (02:10) 1.4 0.2 1.2 0 0
10-08-2019 20 (18:00) 10.6 (00:00) 15.3 10 (02:30) 6.67 (23:20) 0 0 0 0 0
09-08-2019 19.4 (00:00) 12 (00:00) 15.7 25 (08:40) 12.5 (09:00) 2.4 0 0 0 2.4
08-08-2019 23.2 (18:30) 14.4 (00:00) 18.8 14.72 (23:30) 6.67 (13:50) 0 0 0 0 0
07-08-2019 19.5 (14:50) 11.7 (00:00) 15.6 12.78 (18:00) 6.94 (17:50) 0 0 0 0 0
06-08-2019 23.4 (16:50) 13 (00:00) 18.2 11.11 (13:00) 6.67 (15:30) 0 0 0 0 0
05-08-2019 22.9 (19:10) 16.4 (00:00) 19.6 8.61 (22:50) 6.67 (23:00) 0 0 0 0 0
04-08-2019 23 (13:40) 15.4 (00:00) 19.2 9.17 (00:20) 7.78 (00:20) 0 0 0 0 0
03-08-2019 23.4 (17:20) 16 (00:00) 19.7 9.17 (23:40) 7.22 (23:50) 0 0 0 0 0
02-08-2019 20.4 (17:40) 13.3 (00:00) 16.8 6.11 (03:50) 4.72 (03:50) 0 0 0 0 0
01-08-2019 18.3 (13:30) 9.5 (00:00) 13.9 11.67 (00:40) 8.06 (08:50) 2.4 0 2.4 0 0
31-07-2019 17.9 (18:00) 5.4 (00:00) 11.6 11.39 (22:30) 8.89 (22:30) 0 0 0 0 0
30-07-2019 14.3 (17:20) 6.3 (00:00) 10.3 10 (17:00) 3.89 (16:20) 0 0 0 0 0
29-07-2019 20.4 (16:20) 9.5 (00:00) 14.9 15.28 (17:20) 7.78 (18:00) 0 0 0 0 0
28-07-2019 16.5 (20:20) 5.3 (00:00) 10.9 9.72 (23:00) 3.61 (23:20) 1 1 0 0 0
27-07-2019 10.9 (05:00) 7.2 (00:00) 9 10.83 (04:40) 6.39 (04:40) 19.4 0.4 1.4 9 8.6
26-07-2019 17.6 (05:00) 9.5 (00:00) 13.6 13.61 (05:00) 8.61 (04:20) 6.2 0.4 0 3.8 2
25-07-2019 27.6 (16:20) 13.9 (00:00) 20.8 17.5 (19:40) 9.17 (19:40) 3.2 0 0 2.2 1
24-07-2019 26.8 (16:20) 17.1 (00:00) 21.9 14.72 (05:20) 8.89 (05:20) 0 0 0 0 0
23-07-2019 27.6 (17:30) 17.1 (00:00) 22.4 21.39 (09:00) 10.28 (09:00) 1.2 0 0 0 1.2
22-07-2019 28.2 (18:30) 20.2 (00:00) 24.2 12.5 (01:50) 8.89 (07:20) 0 0 0 0 0
21-07-2019 22.8 (17:50) 12.2 (00:00) 17.5 10.56 (23:59) 7.5 (06:20) 0.2 0.2 0 0 0
20-07-2019 22.6 (18:10) 13.4 (00:00) 18 8.61 (07:10) 6.11 (05:10) 0 0 0 0 0
19-07-2019 24.1 (17:50) 12.9 (00:00) 18.5 7.5 (22:10) 5.83 (08:40) 0 0 0 0 0
18-07-2019 18.8 (17:20) 8.2 (00:00) 13.5 6.11 (11:00) 3.33 (10:50) 0 0 0 0 0

Gráficas

Temp. máximas Temp. mínimas Temp. medias Precipitaciones Rachas de viento máximas Velocidades máximas media en intervalos de 10 minutos

Datos horarios

Fecha y hora oficial Temperatura (ºC) Velocidad del viento (km/h) Dirección del viento Racha (km/h) Dirección de racha Precipitación (mm) Presión (hPa) Tendencia (hPa) Humedad (%)
2019-08-16 23:00:00 18.5 10 Sudeste 18 Este 0 -- -- 54
2019-08-16 22:00:00 18.2 5 Este 20 Este 0 -- -- 58
2019-08-16 21:00:00 21 3 Sur 7 Sudoeste 0 -- -- 53
2019-08-16 20:00:00 23.8 5 Noroeste 13 Noroeste 0 -- -- 47
2019-08-16 19:00:00 23.5 8 Noroeste 14 Noroeste 0 -- -- 48
2019-08-16 18:00:00 24.1 5 Noroeste 19 Noroeste 0 -- -- 46
2019-08-16 17:00:00 23.6 9 Noroeste 18 Noroeste 0 -- -- 48
2019-08-16 16:00:00 23.2 12 Noroeste 30 Norte 0 -- -- 51
2019-08-16 15:00:00 23.5 7 Oeste 20 Nordeste 0 -- -- 48
2019-08-16 14:00:00 21.4 8 Noroeste 22 Noroeste 0 -- -- 54
2019-08-16 13:00:00 21.6 7 Noroeste 23 Norte 0 -- -- 56
2019-08-16 12:00:00 20.9 4 Norte 15 Norte 0 -- -- 51
2019-08-16 11:00:00 19.7 4 Norte 9 Sudeste 0 -- -- 56
2019-08-16 10:00:00 19 3 Sudeste 14 Sudeste 0 -- -- 59
2019-08-16 09:00:00 15.7 8 Sudeste 12 Este 0 -- -- 69
2019-08-16 08:00:00 15.1 8 Este 13 Este 0 -- -- 69
2019-08-16 07:00:00 14.9 8 Sur 16 Sudeste 0 -- -- 71
2019-08-16 06:00:00 15.4 5 Sur 10 Sudoeste 0 -- -- 69
2019-08-16 05:00:00 15.8 5 Sur 12 Sur 0 -- -- 67
2019-08-16 04:00:00 15 7 Sur 13 Sur 0 -- -- 70
2019-08-16 03:00:00 15.9 7 Sudeste 12 Sudeste 0 -- -- 66
2019-08-16 02:00:00 15.4 8 Sur 16 Sudeste 0 -- -- 68
2019-08-16 01:00:00 13.8 4 Sudeste 15 Sudeste 0 -- -- 69
2019-08-16 00:00:00 13.9 10 Sudeste 13 Sudeste 0 -- -- 58
2019-08-15 23:00:00 13.4 5 Este 13 Este 0 -- -- 74
2019-08-15 22:00:00 14.4 8 Este 17 Este 0 -- -- 66
2019-08-15 21:00:00 14.1 3 Noroeste 13 Norte 0 -- -- 82
2019-08-15 20:00:00 15.9 6 Noroeste 12 Noroeste 0 -- -- 74
2019-08-15 19:00:00 16.9 6 Noroeste 13 Noroeste 0 -- -- 70
2019-08-15 18:00:00 16.4 6 Noroeste 13 Noroeste 0 -- -- 76
2019-08-15 17:00:00 15.2 7 Noroeste 22 Norte 0 -- -- 87
2019-08-15 16:00:00 14.7 3 Norte 12 Noroeste 0 -- -- 93
2019-08-15 15:00:00 14.9 8 Noroeste 19 Noroeste 0 -- -- 92
2019-08-15 14:00:00 15.7 4 Noroeste 13 Oeste 0 -- -- 89
2019-08-15 13:00:00 15.2 6 Norte 15 Noroeste 0 -- -- 91
2019-08-15 12:00:00 13.7 6 Noroeste 13 Noroeste 0 -- -- 95
2019-08-15 11:00:00 14.1 6 Noroeste 10 Noroeste 0 -- -- 91
2019-08-15 10:00:00 12.5 6 Noroeste 9 Norte 0 -- -- 96
2019-08-15 09:00:00 11.6 4 Sur 10 Sudeste 0 -- -- 95
2019-08-15 08:00:00 11.6 3 Sur 8 Sudeste 0 -- -- 96
2019-08-15 07:00:00 11.3 3 Oeste 15 Este 0 -- -- 99
2019-08-15 06:00:00 11.4 0 Calma 17 Sudeste 0 -- -- 99
2019-08-15 05:00:00 11.1 9 Este 20 Este 0 -- -- 99
2019-08-15 04:00:00 10.6 5 Este 15 Este 0 -- -- 96
2019-08-15 03:00:00 11.2 4 Noroeste 13 Sur 0 -- -- 91
2019-08-15 02:00:00 11.8 4 Sudeste 7 Sudeste 0 -- -- 87
2019-08-15 01:00:00 11.9 0 Calma 8 Sudeste 0 -- -- 85
2019-08-15 00:00:00 12.8 4 Sudeste 6 Sudeste 0 -- -- 80
2019-08-14 23:00:00 13.3 2 Este 8 Este 0 -- -- 77
2019-08-14 22:00:00 15 3 Nordeste 8 Este 0 -- -- 70
2019-08-14 21:00:00 17.2 4 Noroeste 9 Noroeste 0 -- -- 66
2019-08-14 20:00:00 19.5 5 Noroeste 15 Noroeste 0 -- -- 56
2019-08-14 19:00:00 20.5 14 Noroeste 26 Noroeste 0 -- -- 51
2019-08-14 18:00:00 21.2 10 Noroeste 21 Noroeste 0 -- -- 40
2019-08-14 17:00:00 21.2 12 Noroeste 25 Norte 0 -- -- 38
2019-08-14 16:00:00 20.4 12 Noroeste 31 Noroeste 0 -- -- 41
2019-08-14 15:00:00 19.6 13 Noroeste 25 Noroeste 0 -- -- 42
2019-08-14 14:00:00 18.8 10 Noroeste 19 Noroeste 0 -- -- 43
2019-08-14 13:00:00 18 8 Noroeste 18 Noroeste 0 -- -- 45
2019-08-14 12:00:00 17.6 8 Norte 16 Nordeste 0 -- -- 43
2019-08-14 11:00:00 16 5 Noroeste 11 Norte 0 -- -- 48
2019-08-14 10:00:00 15.6 5 Norte 16 Norte 0 -- -- 45
2019-08-14 09:00:00 13.9 8 Oeste 18 Noroeste 0 -- -- 48
2019-08-14 08:00:00 13.1 6 Oeste 15 Oeste 0 -- -- 52
2019-08-14 07:00:00 13.6 8 Sudoeste 21 Sudoeste 0 -- -- 49
2019-08-14 06:00:00 13.1 6 Sudoeste 13 Sudoeste 0 -- -- 53
2019-08-14 05:00:00 13 4 Oeste 13 Sudoeste 0 -- -- 52
2019-08-14 04:00:00 12.7 6 Sudoeste 15 Sudoeste 0 -- -- 53
2019-08-14 03:00:00 13.2 6 Sudoeste 16 Oeste 0 -- -- 52
2019-08-14 02:00:00 11.4 9 Sudeste 15 Sudeste 0 -- -- 61
2019-08-14 01:00:00 11.1 8 Este 12 Sudeste 0 -- -- 64
2019-08-14 00:00:00 11.4 6 Sudeste 14 Este 0 -- -- 61
2019-08-13 23:00:00 11 10 Este 15 Este 0 -- -- 59
2019-08-13 22:00:00 11.2 4 Este 12 Este 0 -- -- 55
2019-08-13 21:00:00 12.5 4 Oeste 10 Norte 0 -- -- 70
2019-08-13 20:00:00 13.8 7 Noroeste 17 Noroeste 0 -- -- 64
2019-08-13 19:00:00 14 12 Noroeste 19 Noroeste 0 -- -- 59
2019-08-13 18:00:00 14.6 9 Noroeste 19 Noroeste 0 -- -- 57
2019-08-13 17:00:00 14.5 11 Noroeste 18 Noroeste 0 -- -- 60
2019-08-13 16:00:00 14.1 9 Noroeste 18 Noroeste 0 -- -- 69
2019-08-13 15:00:00 13.8 9 Noroeste 14 Noroeste 0 -- -- 69
2019-08-13 14:00:00 12.8 7 Noroeste 13 Noroeste 0 -- -- 70
2019-08-13 13:00:00 11.1 6 Noroeste 12 Noroeste 0 -- -- 77
2019-08-13 12:00:00 9.6 6 Noroeste 11 Norte 0 -- -- 80
2019-08-13 11:00:00 8 5 Noroeste 8 Noroeste 0 -- -- 78
2019-08-13 10:00:00 7 0 Calma 6 Este 0 -- -- 79
2019-08-13 09:00:00 5.2 4 Sudeste 13 Este 0 -- -- 81
2019-08-13 08:00:00 4.8 7 Sudeste 13 Este 0 -- -- 76
2019-08-13 07:00:00 5.5 9 Este 19 Este 0 -- -- 75
2019-08-13 06:00:00 5.4 11 Este 19 Este 0 -- -- 81
2019-08-13 05:00:00 5.2 9 Este 18 Sudeste 0 -- -- 81
2019-08-13 04:00:00 5 13 Este 16 Este 0 -- -- 81
2019-08-13 03:00:00 5.7 4 Norte 9 Norte 0 -- -- 95
2019-08-13 02:00:00 5.4 5 Noroeste 19 Norte 0 -- -- 99
2019-08-13 01:00:00 6 4 Norte 11 Noroeste 0 -- -- 100
2019-08-13 00:00:00 6 5 Noroeste 23 Este 0 -- -- 98
2019-08-12 23:00:00 6.1 11 Este 22 Este 0 -- -- 95
2019-08-12 22:00:00 6.4 4 Oeste 15 Norte 0 -- -- 91
2019-08-12 21:00:00 6.9 7 Norte 22 Norte 0 -- -- 96
2019-08-12 20:00:00 7.9 11 Noroeste 26 Noroeste 0 -- -- 91
2019-08-12 19:00:00 9.5 9 Noroeste 28 Norte 0 -- -- 80
2019-08-12 18:00:00 10.5 11 Noroeste 25 Noroeste 0 -- -- 73
2019-08-12 17:00:00 10.7 14 Norte 32 Noroeste 0 -- -- 72
2019-08-12 16:00:00 10.4 12 Noroeste 23 Noroeste 0 -- -- 67
2019-08-12 15:00:00 11 8 Noroeste 22 Noroeste 0 -- -- 69
2019-08-12 14:00:00 9.1 11 Noroeste 22 Noroeste 0 -- -- 76
2019-08-12 13:00:00 8.9 9 Noroeste 19 Noroeste 0 -- -- 76
2019-08-12 12:00:00 8.1 7 Noroeste 19 Noroeste 0 -- -- 99
2019-08-12 11:00:00 6.3 8 Noroeste 22 Noroeste 0 -- -- 100
2019-08-12 10:00:00 5.8 11 Noroeste 22 Noroeste 0 -- -- 100
2019-08-12 09:00:00 5.2 0 Calma 13 Noroeste 0 -- -- 100
2019-08-12 08:00:00 4.7 3 Noroeste 7 Noroeste 0 -- -- 100
2019-08-12 07:00:00 4.8 3 Nordeste 12 Noroeste 0 -- -- 100
2019-08-12 06:00:00 5.8 2 Nordeste 9 Sudoeste 0 -- -- 100
2019-08-12 05:00:00 5.6 7 Noroeste 10 Noroeste 0 -- -- 100
2019-08-12 04:00:00 6.3 6 Noroeste 14 Noroeste 0 -- -- 100
2019-08-12 03:00:00 6.4 6 Noroeste 12 Noroeste 0 -- -- 100
2019-08-12 02:00:00 7.1 7 Noroeste 16 Noroeste 0.2 -- -- 100
2019-08-12 01:00:00 7.5 6 Noroeste 15 Oeste 0 -- -- 100
2019-08-12 00:00:00 7.9 7 Noroeste 17 Noroeste 0 -- -- 100
2019-08-11 23:00:00 8.4 8 Noroeste 16 Noroeste 0 -- -- 100
2019-08-11 22:00:00 8.6 9 Noroeste 18 Noroeste 0 -- -- 100
2019-08-11 21:00:00 9.3 6 Noroeste 13 Noroeste 0 -- -- 100
2019-08-11 20:00:00 9.4 9 Noroeste 19 Noroeste 0 -- -- 100
2019-08-11 19:00:00 10.7 14 Noroeste 26 Noroeste 0 -- -- 98
2019-08-11 18:00:00 13.4 5 Noroeste 16 Noroeste 0 -- -- 85
2019-08-11 17:00:00 14.2 8 Noroeste 17 Noroeste 0 -- -- 81
2019-08-11 16:00:00 14 6 Noroeste 13 Noroeste 0 -- -- 82
2019-08-11 15:00:00 11.3 4 Noroeste 14 Noroeste 0 -- -- 94
2019-08-11 14:00:00 11 8 Noroeste 19 Noroeste 0 -- -- 98
2019-08-11 13:00:00 12.4 7 Noroeste 13 Noroeste 0 -- -- 87
2019-08-11 12:00:00 13 7 Noroeste 13 Norte 0 -- -- 87
2019-08-11 11:00:00 12.7 5 Noroeste 20 Norte 0 -- -- 89
2019-08-11 10:00:00 12.3 15 Norte 26 Norte 0 -- -- 67
2019-08-11 09:00:00 9.8 9 Norte 21 Norte 0 -- -- 84
2019-08-11 08:00:00 9.7 7 Este 23 Sur 0.2 -- -- 98
2019-08-11 07:00:00 9.2 9 Noroeste 18 Noroeste 1 -- -- 100
2019-08-11 06:00:00 9.4 8 Noroeste 31 Noroeste 0 -- -- 100
2019-08-11 05:00:00 13.9 7 Norte 20 Noroeste 0 -- -- 63
2019-08-11 04:00:00 12.2 5 Este 16 Noroeste 0 -- -- 77
2019-08-11 03:00:00 14.9 9 Sudeste 39 Sudeste 0 -- -- 60
2019-08-11 02:00:00 13.2 13 Sudeste 55 Sudeste 0.2 -- -- 64
2019-08-11 01:00:00 10.4 5 Sur 19 Sudeste 0 -- -- 98
2019-08-11 00:00:00 12.3 9 Nordeste 32 Sudeste 0 -- -- 90
2019-08-10 23:00:00 10.6 0 Calma 11 Noroeste 0 -- -- 99
2019-08-10 22:00:00 11.2 4 Noroeste 9 Noroeste 0 -- -- 98
2019-08-10 21:00:00 13 6 Noroeste 12 Noroeste 0 -- -- 91
2019-08-10 20:00:00 16.4 8 Noroeste 17 Noroeste 0 -- -- 77
2019-08-10 19:00:00 18.5 8 Noroeste 29 Noroeste 0 -- -- 58
2019-08-10 18:00:00 20 17 Norte 34 Noroeste 0 -- -- 44
2019-08-10 17:00:00 19.2 12 Noroeste 24 Noroeste 0 -- -- 51
2019-08-10 16:00:00 18.3 8 Noroeste 17 Noroeste 0 -- -- 55
2019-08-10 15:00:00 16 7 Noroeste 16 Noroeste 0 -- -- 72
2019-08-10 14:00:00 15.1 6 Noroeste 15 Noroeste 0 -- -- 75
2019-08-10 13:00:00 14.6 0 Calma 13 Noroeste 0 -- -- 76
2019-08-10 12:00:00 13.3 6 Noroeste 14 Norte 0 -- -- 81
2019-08-10 11:00:00 12.6 4 Norte 12 Noroeste 0 -- -- 81
2019-08-10 10:00:00 12.2 2 Sur 12 Noroeste 0 -- -- 80
2019-08-10 09:00:00 12.4 6 Nordeste 35 Norte 0 -- -- 76
2019-08-10 08:00:00 12.4 17 Norte 31 Norte 0 -- -- 75
2019-08-10 07:00:00 12 6 Norte 19 Sur 0 -- -- 76
2019-08-10 06:00:00 12.3 6 Sur 21 Sudoeste 0 -- -- 71
2019-08-10 05:00:00 13.4 5 Sudoeste 25 Sudoeste 0 -- -- 57
2019-08-10 04:00:00 14 6 Sudoeste 23 Sudoeste 0 -- -- 49
2019-08-10 03:00:00 15.1 6 Noroeste 36 Sudoeste 0 -- -- 40
2019-08-10 02:00:00 13.9 9 Sudoeste 32 Oeste 0 -- -- 56
2019-08-10 01:00:00 13.7 12 Oeste 35 Sur 0 -- -- 61
2019-08-10 00:00:00 13.7 14 Sur 28 Sur 0 -- -- 64
2019-08-09 23:00:00 14.3 9 Oeste 37 Norte 0 -- -- 60
2019-08-09 22:00:00 13 11 Norte 50 Sudeste 0.2 -- -- 69
2019-08-09 21:00:00 12.2 23 Sudeste 57 Sur 2.2 -- -- 70
2019-08-09 20:00:00 14.8 16 Noroeste 71 Norte 0 -- -- 62
2019-08-09 19:00:00 15.5 31 Norte 59 Norte 0 -- -- 79
2019-08-09 18:00:00 17.5 18 Sudeste 57 Sur 0 -- -- 80
2019-08-09 17:00:00 18.4 13 Nordeste 71 Sur 0 -- -- 78
2019-08-09 16:00:00 19.1 8 Este 67 Sudeste 0 -- -- 73
2019-08-09 15:00:00 18.3 17 Nordeste 54 Sudeste 0 -- -- 75
2019-08-09 14:00:00 19 13 Norte 54 Este 0 -- -- 72
2019-08-09 13:00:00 18.1 19 Sudeste 55 Sur 0 -- -- 72
2019-08-09 12:00:00 17.9 30 Sudeste 81 Sur 0 -- -- 71
2019-08-09 11:00:00 16.9 26 Sudeste 76 Sudeste 0 -- -- 78
2019-08-09 10:00:00 16.6 14 Este 72 Sur 0 -- -- 79
2019-08-09 09:00:00 16.8 45 Sudeste 90 Sudeste 0 -- -- 66
2019-08-09 08:00:00 16.6 35 Sudeste 78 Sudeste 0 -- -- 65
2019-08-09 07:00:00 16.7 37 Sudeste 68 Sur 0 -- -- 62
2019-08-09 06:00:00 16.8 24 Sudeste 62 Sur 0 -- -- 69
2019-08-09 05:00:00 16.8 21 Sudeste 53 Sudeste 0 -- -- 75
2019-08-09 04:00:00 17 31 Sudeste 68 Sur 0 -- -- 76
2019-08-09 03:00:00 17.4 17 Sudeste 45 Sudeste 0 -- -- 73
2019-08-09 02:00:00 17.8 10 Sudeste 44 Sudeste 0 -- -- 68
2019-08-09 01:00:00 19 22 Sudeste 49 Sur 0 -- -- 62
2019-08-09 00:00:00 19.4 10 Nordeste 53 Sur 0 -- -- 62
2019-08-08 23:00:00 20.5 19 Sudeste 43 Sur 0 -- -- 55
2019-08-08 22:00:00 21.4 12 Sudeste 46 Sur 0 -- -- 47
2019-08-08 21:00:00 22.3 16 Sudeste 53 Sur 0 -- -- 51
2019-08-08 20:00:00 22.9 20 Sudeste 50 Sur 0 -- -- 53
2019-08-08 19:00:00 22.8 12 Sudeste 32 Noroeste 0 -- -- 54
2019-08-08 18:00:00 22.3 14 Este 48 Sur 0 -- -- 56
2019-08-08 17:00:00 20.9 12 Sudeste 36 Sur 0 -- -- 62
2019-08-08 16:00:00 20.4 8 Sudeste 46 Sur 0 -- -- 65
2019-08-08 15:00:00 20.1 18 Sudeste 46 Sudeste 0 -- -- 65
2019-08-08 14:00:00 19 20 Sur 51 Este 0 -- -- 68
2019-08-08 13:00:00 18.7 12 Norte 38 Sur 0 -- -- 70
2019-08-08 12:00:00 18 14 Sudeste 41 Sur 0 -- -- 72
2019-08-08 11:00:00 17.5 15 Sudeste 36 Norte 0 -- -- 75
2019-08-08 10:00:00 15.4 6 Norte 23 Norte 0 -- -- 84
2019-08-08 09:00:00 15.1 11 Norte 43 Norte 0 -- -- 79
2019-08-08 08:00:00 14.4 15 Sudeste 40 Sudeste 0 -- -- 82
2019-08-08 07:00:00 14.9 13 Este 31 Sudeste 0 -- -- 79
2019-08-08 06:00:00 14.8 9 Este 30 Sur 0 -- -- 76
2019-08-08 05:00:00 15 9 Sudeste 49 Sur 0 -- -- 74
2019-08-08 04:00:00 15 11 Sur 37 Noroeste 0 -- -- 72
2019-08-08 03:00:00 15.1 14 Noroeste 42 Norte 0 -- -- 71
2019-08-08 02:00:00 15 16 Noroeste 52 Noroeste 0 -- -- 69
2019-08-08 01:00:00 15.1 10 Sur 28 Norte 0 -- -- 68
2019-08-08 00:00:00 15.8 13 Sudeste 31 Sudeste 0 -- -- 68
2019-08-07 23:00:00 16.1 13 Norte 35 Norte 0 -- -- 67
2019-08-07 22:00:00 16.4 14 Sudeste 37 Sur 0 -- -- 66
2019-08-07 21:00:00 16.8 10 Sudeste 41 Sur 0 -- -- 61
2019-08-07 20:00:00 17.5 16 Norte 40 Sur 0 -- -- 58
2019-08-07 19:00:00 17.2 17 Sudeste 46 Sudeste 0 -- -- 61
2019-08-07 18:00:00 18 22 Sudeste 46 Sur 0 -- -- 58
2019-08-07 17:00:00 18.3 13 Sudeste 34 Sudeste 0 -- -- 57
2019-08-07 16:00:00 18.5 10 Sudeste 30 Noroeste 0 -- -- 57
2019-08-07 15:00:00 19.5 9 Norte 21 Norte 0 -- -- 56
2019-08-07 14:00:00 18.8 10 Noroeste 21 Noroeste 0 -- -- 71
2019-08-07 13:00:00 18.2 9 Noroeste 15 Noroeste 0 -- -- 71
2019-08-07 12:00:00 16.8 6 Noroeste 14 Noroeste 0 -- -- 76
2019-08-07 11:00:00 16.5 2 Noroeste 9 Noroeste 0 -- -- 70
2019-08-07 10:00:00 16.6 0 Calma 8 Este 0 -- -- 63
2019-08-07 09:00:00 14.7 3 Nordeste 7 Oeste 0 -- -- 67
2019-08-07 08:00:00 14.8 3 Sudeste 9 Noroeste 0 -- -- 67
2019-08-07 07:00:00 16.4 5 Noroeste 21 Noroeste 0 -- -- 62
2019-08-07 06:00:00 15.7 4 Noroeste 14 Noroeste 0 -- -- 60
2019-08-07 05:00:00 15.1 2 Este 13 Oeste 0 -- -- 65
2019-08-07 04:00:00 15.4 5 Sudeste 13 Sur 0 -- -- 66
2019-08-07 03:00:00 15.4 8 Sudeste 20 Sudeste 0 -- -- 67
2019-08-07 02:00:00 11.7 6 Noroeste 12 Noroeste 0 -- -- 100
2019-08-07 01:00:00 13.2 2 Noroeste 9 Noroeste 0 -- -- 97
2019-08-07 00:00:00 13.4 4 Sudoeste 15 Norte 0 -- -- 97
2019-08-06 23:00:00 13.2 6 Sudeste 12 Noroeste 0 -- -- 98
2019-08-06 22:00:00 14.6 5 Noroeste 12 Noroeste 0 -- -- 94
2019-08-06 21:00:00 17 3 Oeste 17 Este 0 -- -- 87
2019-08-06 20:00:00 20 11 Este 19 Este 0 -- -- 66
2019-08-06 19:00:00 21.4 5 Noroeste 14 Noroeste 0 -- -- 57
2019-08-06 18:00:00 21.6 7 Noroeste 24 Norte 0 -- -- 59
2019-08-06 17:00:00 22.9 13 Norte 36 Noroeste 0 -- -- 42
2019-08-06 16:00:00 22.7 18 Norte 39 Noroeste 0 -- -- 43
2019-08-06 15:00:00 22.9 21 Norte 33 Noroeste 0 -- -- 43
2019-08-06 14:00:00 22.3 8 Norte 27 Sudeste 0 -- -- 48
2019-08-06 13:00:00 21.3 14 Sudeste 40 Sur 0 -- -- 47
2019-08-06 12:00:00 20.8 9 Norte 30 Este 0 -- -- 51
2019-08-06 11:00:00 20.7 10 Nordeste 30 Sudeste 0 -- -- 48
2019-08-06 10:00:00 19.6 9 Nordeste 23 Norte 0 -- -- 47
2019-08-06 09:00:00 18.2 6 Nordeste 18 Norte 0 -- -- 52
2019-08-06 08:00:00 17.4 4 Este 12 Norte 0 -- -- 54
2019-08-06 07:00:00 17.2 5 Este 15 Norte 0 -- -- 54
2019-08-06 06:00:00 17.3 4 Este 13 Sudeste 0 -- -- 52
2019-08-06 05:00:00 17.8 5 Sudeste 12 Norte 0 -- -- 51
2019-08-06 04:00:00 18.7 6 Sur 19 Sur 0 -- -- 50
2019-08-06 03:00:00 19.7 8 Sur 17 Sur 0 -- -- 45
2019-08-06 02:00:00 18.8 16 Sur 20 Sur 0 -- -- 42
2019-08-06 01:00:00 18.3 9 Sur 17 Sur 0 -- -- 46
2019-08-06 00:00:00 18.8 11 Sur 28 Sur 0 -- -- 60
2019-08-05 23:00:00 20.2 24 Sur 31 Sur 0 -- -- 59
2019-08-05 22:00:00 20.2 21 Sudeste 26 Sudeste 0 -- -- 59
2019-08-05 21:00:00 19.9 14 Este 22 Este 0 -- -- 74
2019-08-05 20:00:00 20.7 6 Noroeste 14 Norte 0 -- -- 71
2019-08-05 19:00:00 22.2 8 Noroeste 13 Noroeste 0 -- -- 57
2019-08-05 18:00:00 22.7 6 Noroeste 13 Noroeste 0 -- -- 58
2019-08-05 17:00:00 22.4 7 Noroeste 17 Noroeste 0 -- -- 60
2019-08-05 16:00:00 21.6 10 Noroeste 19 Noroeste 0 -- -- 64
2019-08-05 15:00:00 21.3 9 Noroeste 16 Noroeste 0 -- -- 68
2019-08-05 14:00:00 21.3 6 Noroeste 12 Noroeste 0 -- -- 58
2019-08-05 13:00:00 20.6 6 Noroeste 9 Norte 0 -- -- 46
2019-08-05 12:00:00 20.7 6 Noroeste 13 Noroeste 0 -- -- 44
2019-08-05 11:00:00 20.8 5 Noroeste 11 Norte 0 -- -- 48
2019-08-05 10:00:00 19.9 5 Nordeste 10 Sudoeste 0 -- -- 52
2019-08-05 09:00:00 18.2 7 Sur 15 Sudoeste 0 -- -- 60
2019-08-05 08:00:00 17.8 8 Sudoeste 14 Sudoeste 0 -- -- 65
2019-08-05 07:00:00 17.4 5 Sudoeste 15 Sur 0 -- -- 62
2019-08-05 06:00:00 16.5 5 Sur 13 Sur 0 -- -- 59
2019-08-05 05:00:00 17.1 7 Sur 16 Sur 0 -- -- 56
2019-08-05 04:00:00 17.7 11 Sur 18 Sur 0 -- -- 55
2019-08-05 03:00:00 18.1 14 Sur 19 Sur 0 -- -- 55
2019-08-05 02:00:00 18.1 11 Sur 17 Sur 0 -- -- 56
2019-08-05 01:00:00 18.5 15 Sur 22 Sudeste 0 -- -- 59
2019-08-05 00:00:00 18.9 14 Sur 21 Sur 0 -- -- 61
2019-08-04 23:00:00 19.2 19 Sudeste 26 Sudeste 0 -- -- 60
2019-08-04 22:00:00 17.7 7 Este 15 Este 0 -- -- 83
2019-08-04 21:00:00 19.3 3 Noroeste 10 Noroeste 0 -- -- 83
2019-08-04 20:00:00 22.1 4 Norte 12 Noroeste 0 -- -- 71
2019-08-04 19:00:00 21.9 8 Noroeste 17 Norte 0 -- -- 71
2019-08-04 18:00:00 21.8 11 Noroeste 19 Noroeste 0 -- -- 70
2019-08-04 17:00:00 21.9 6 Noroeste 15 Noroeste 0 -- -- 70
2019-08-04 16:00:00 21.4 9 Noroeste 16 Noroeste 0 -- -- 72
2019-08-04 15:00:00 22 7 Noroeste 21 Norte 0 -- -- 65
2019-08-04 14:00:00 22.6 10 Noroeste 20 Norte 0 -- -- 51
2019-08-04 13:00:00 22.4 9 Norte 18 Norte 0 -- -- 51
2019-08-04 12:00:00 22.4 5 Noroeste 14 Nordeste 0 -- -- 44
2019-08-04 11:00:00 22.2 6 Oeste 15 Noroeste 0 -- -- 43
2019-08-04 10:00:00 21.7 7 Este 18 Nordeste 0 -- -- 40
2019-08-04 09:00:00 19.3 6 Nordeste 16 Sur 0 -- -- 42
2019-08-04 08:00:00 18.5 9 Sur 27 Sur 0 -- -- 42
2019-08-04 07:00:00 18.3 23 Sur 31 Sur 0 -- -- 52
2019-08-04 06:00:00 18.1 18 Sur 25 Sudeste 0 -- -- 47
2019-08-04 05:00:00 18.3 22 Sudeste 28 Sudeste 0 -- -- 52
2019-08-04 04:00:00 18.6 25 Sur 31 Sur 0 -- -- 56
2019-08-04 03:00:00 18.8 28 Sudeste 31 Sudeste 0 -- -- 54
2019-08-04 02:00:00 19 25 Sudeste 30 Sudeste 0 -- -- 53
2019-08-04 01:00:00 19.5 25 Sudeste 33 Sudeste 0 -- -- 51
2019-08-04 00:00:00 19.4 26 Sudeste 33 Sudeste 0 -- -- 54
2019-08-03 23:00:00 19.9 21 Sudeste 27 Sudeste 0 -- -- 51
2019-08-03 22:00:00 20.2 18 Sudeste 24 Sudeste 0 -- -- 50
2019-08-03 21:00:00 20.8 8 Sudeste 18 Sur 0 -- -- 51
2019-08-03 20:00:00 22.3 8 Este 17 Sur 0 -- -- 46
2019-08-03 19:00:00 22.7 9 Sudeste 18 Sudeste 0 -- -- 47
2019-08-03 18:00:00 22.3 10 Sudeste 21 Sudeste 0 -- -- 52
2019-08-03 17:00:00 23.1 6 Noroeste 17 Noroeste 0 -- -- 58
2019-08-03 16:00:00 22 9 Noroeste 15 Noroeste 0 -- -- 65
2019-08-03 15:00:00 21.8 6 Noroeste 14 Noroeste 0 -- -- 65
2019-08-03 14:00:00 21.6 5 Noroeste 10 Noroeste 0 -- -- 58
2019-08-03 13:00:00 21.1 5 Noroeste 12 Noroeste 0 -- -- 58
2019-08-03 12:00:00 21.5 3 Noroeste 8 Noroeste 0 -- -- 54
2019-08-03 11:00:00 21.2 3 Noroeste 16 Sur 0 -- -- 47
2019-08-03 10:00:00 20.6 2 Este 22 Sur 0 -- -- 49
2019-08-03 09:00:00 18.5 20 Sudeste 28 Sudeste 0 -- -- 50
2019-08-03 08:00:00 17.3 25 Sudeste 29 Sudeste 0 -- -- 56
2019-08-03 07:00:00 16.5 24 Sudeste 29 Sur 0 -- -- 57
2019-08-03 06:00:00 17.4 22 Sudeste 28 Sur 0 -- -- 49
2019-08-03 05:00:00 16.6 24 Sudeste 27 Sudeste 0 -- -- 44
2019-08-03 04:00:00 16.1 24 Sudeste 26 Sudeste 0 -- -- 46
2019-08-03 03:00:00 16.3 15 Sudeste 22 Este 0 -- -- 46
2019-08-03 02:00:00 16.4 18 Este 23 Sudeste 0 -- -- 45
2019-08-03 01:00:00 16.4 16 Sudeste 22 Este 0 -- -- 47
2019-08-03 00:00:00 16.8 16 Sudeste 21 Este 0 -- -- 47
2019-08-02 23:00:00 16 11 Sudeste 18 Sudeste 0 -- -- 55
2019-08-02 22:00:00 15.8 13 Sudeste 14 Sudeste 0 -- -- 60
2019-08-02 21:00:00 18 3 Noroeste 9 Oeste 0 -- -- 69
2019-08-02 20:00:00 19.1 7 Noroeste 14 Noroeste 0 -- -- 67
2019-08-02 19:00:00 19.8 8 Noroeste 16 Noroeste 0 -- -- 65
2019-08-02 18:00:00 20.1 9 Noroeste 17 Noroeste 0 -- -- 64
2019-08-02 17:00:00 20 8 Noroeste 17 Noroeste 0 -- -- 65
2019-08-02 16:00:00 19.6 9 Noroeste 17 Noroeste 0 -- -- 73
2019-08-02 15:00:00 19.5 10 Noroeste 14 Noroeste 0 -- -- 72
2019-08-02 14:00:00 18.4 4 Noroeste 11 Noroeste 0 -- -- 65
2019-08-02 13:00:00 19 4 Noroeste 12 Norte 0 -- -- 53
2019-08-02 12:00:00 19 4 Noroeste 10 Noroeste 0 -- -- 48
2019-08-02 11:00:00 19.3 3 Noroeste 5 Noroeste 0 -- -- 51
2019-08-02 10:00:00 18.9 0 Calma 12 Este 0 -- -- 47
2019-08-02 09:00:00 14.7 9 Este 15 Este 0 -- -- 58
2019-08-02 08:00:00 15.4 13 Sudeste 17 Sudeste 0 -- -- 50
2019-08-02 07:00:00 14.7 13 Sudeste 19 Sudeste 0 -- -- 53
2019-08-02 06:00:00 15.7 12 Sudeste 22 Este 0 -- -- 47
2019-08-02 05:00:00 14.1 12 Este 21 Este 0 -- -- 60
2019-08-02 04:00:00 15.1 13 Este 22 Este 0 -- -- 51
2019-08-02 03:00:00 13.8 14 Este 17 Este 0 -- -- 55
2019-08-02 02:00:00 13.7 11 Sudeste 17 Este 0 -- -- 68
2019-08-02 01:00:00 13.7 15 Sudeste 19 Sudeste 0 -- -- 75
2019-08-02 00:00:00 13.4 13 Sudeste 17 Sudeste 0 -- -- 85
2019-08-01 23:00:00 11.5 3 Este 6 Este 0 -- -- 100
2019-08-01 22:00:00 13.1 2 Nordeste 9 Noroeste 0 -- -- 100
2019-08-01 21:00:00 13.4 5 Noroeste 10 Noroeste 0 -- -- 100
2019-08-01 20:00:00 14.5 8 Noroeste 14 Norte 0 -- -- 100
2019-08-01 19:00:00 15.2 7 Noroeste 16 Noroeste 0 -- -- 100
2019-08-01 18:00:00 15.6 6 Noroeste 15 Noroeste 0 -- -- 100
2019-08-01 17:00:00 15.7 4 Noroeste 12 Noroeste 0 -- -- 99
2019-08-01 16:00:00 16.1 7 Noroeste 11 Noroeste 0 -- -- 97
2019-08-01 15:00:00 16.6 8 Noroeste 15 Este 0 -- -- 95
2019-08-01 14:00:00 16.5 5 Oeste 14 Oeste 0 -- -- 95
2019-08-01 13:00:00 15.9 5 Nordeste 14 Noroeste 0 -- -- 98
2019-08-01 12:00:00 14.8 4 Noroeste 10 Noroeste 0 -- -- 100
2019-08-01 11:00:00 16.3 5 Norte 12 Noroeste 0 -- -- 87
2019-08-01 10:00:00 16 12 Sur 31 Sudeste 0 -- -- 84
2019-08-01 09:00:00 15.1 28 Sudeste 39 Sudeste 0 -- -- 88
2019-08-01 08:00:00 13.8 24 Sudeste 34 Sudeste 2.4 -- -- 94
2019-08-01 07:00:00 10.7 12 Este 22 Este 0 -- -- 100
2019-08-01 06:00:00 13.6 15 Este 39 Este 0 -- -- 94
2019-08-01 05:00:00 10 6 Sudeste 41 Norte 0 -- -- 100
2019-08-01 04:00:00 16.4 16 Sudeste 30 Sur 0 -- -- 74
2019-08-01 03:00:00 16.9 19 Sudeste 36 Sudeste 0 -- -- 71
2019-08-01 02:00:00 16.7 23 Sudeste 40 Este 0 -- -- 68
2019-08-01 01:00:00 16.8 22 Sudeste 42 Sudeste 0 -- -- 64
2019-08-01 00:00:00 16.6 27 Sudeste 40 Sudeste 0 -- -- 61
2019-07-31 23:00:00 16.1 31 Sudeste 41 Sudeste 0 -- -- 62
2019-07-31 22:00:00 14.8 29 Sudeste 33 Sudeste 0 -- -- 64
2019-07-31 21:00:00 15.6 23 Sudeste 31 Sudeste 0 -- -- 57
2019-07-31 20:00:00 15.7 20 Sudeste 30 Este 0 -- -- 56
2019-07-31 19:00:00 15.9 15 Este 31 Este 0 -- -- 59
2019-07-31 18:00:00 17.9 6 Noroeste 15 Este 0 -- -- 65
2019-07-31 17:00:00 16.7 8 Noroeste 17 Noroeste 0 -- -- 72
2019-07-31 16:00:00 16.6 5 Noroeste 14 Norte 0 -- -- 70
2019-07-31 15:00:00 15.5 5 Noroeste 16 Noroeste 0 -- -- 75
2019-07-31 14:00:00 15.1 8 Noroeste 13 Noroeste 0 -- -- 75
2019-07-31 13:00:00 14.4 6 Norte 13 Oeste 0 -- -- 79
2019-07-31 12:00:00 14.2 3 Norte 10 Noroeste 0 -- -- 68
2019-07-31 11:00:00 14.2 3 Norte 13 Sudeste 0 -- -- 62
2019-07-31 10:00:00 15 13 Sur 24 Sudeste 0 -- -- 70
2019-07-31 09:00:00 13.7 11 Sur 20 Nordeste 0 -- -- 59
2019-07-31 08:00:00 11.8 2 Sur 12 Sur 0 -- -- 57
2019-07-31 07:00:00 10.6 10 Sur 27 Este 0 -- -- 63
2019-07-31 06:00:00 10.5 17 Este 23 Este 0 -- -- 63
2019-07-31 05:00:00 9.8 16 Este 24 Este 0 -- -- 62
2019-07-31 04:00:00 7.2 6 Nordeste 20 Este 0 -- -- 84
2019-07-31 03:00:00 5.6 4 Este 15 Este 0 -- -- 100
2019-07-31 02:00:00 5.9 3 Nordeste 10 Sudeste 0 -- -- 100
2019-07-31 01:00:00 6.6 3 Sudeste 9 Noroeste 0 -- -- 100
2019-07-31 00:00:00 6.8 3 Nordeste 12 Sudeste 0 -- -- 98
2019-07-30 23:00:00 7.1 3 Sudeste 15 Este 0 -- -- 96
2019-07-30 22:00:00 8.2 7 Sudeste 14 Noroeste 0 -- -- 92
2019-07-30 21:00:00 9.7 4 Sur 24 Noroeste 0 -- -- 85
2019-07-30 20:00:00 10.9 10 Noroeste 23 Noroeste 0 -- -- 79
2019-07-30 19:00:00 13 14 Noroeste 28 Noroeste 0 -- -- 63
2019-07-30 18:00:00 13.8 8 Nordeste 25 Noroeste 0 -- -- 62
2019-07-30 17:00:00 13 10 Norte 36 Noroeste 0 -- -- 65
2019-07-30 16:00:00 13.6 11 Noroeste 24 Norte 0 -- -- 67
2019-07-30 15:00:00 12.4 7 Oeste 20 Norte 0 -- -- 73
2019-07-30 14:00:00 10.8 10 Noroeste 22 Noroeste 0 -- -- 79
2019-07-30 13:00:00 10.3 7 Noroeste 13 Oeste 0 -- -- 81
2019-07-30 12:00:00 9.8 7 Noroeste 15 Sudeste 0 -- -- 83
2019-07-30 11:00:00 8.1 4 Sur 9 Sur 0 -- -- 94
2019-07-30 10:00:00 7.9 0 Calma 14 Este 0 -- -- 99
2019-07-30 09:00:00 6.9 5 Este 11 Nordeste 0 -- -- 100
2019-07-30 08:00:00 7.1 3 Norte 14 Este 0 -- -- 100
2019-07-30 07:00:00 6.6 6 Este 14 Este 0 -- -- 100
2019-07-30 06:00:00 7.8 3 Norte 8 Noroeste 0 -- -- 100
2019-07-30 05:00:00 8.2 4 Noroeste 8 Noroeste 0 -- -- 100
2019-07-30 04:00:00 8.5 5 Noroeste 13 Noroeste 0 -- -- 100
2019-07-30 03:00:00 8.9 6 Noroeste 12 Noroeste 0 -- -- 100
2019-07-30 02:00:00 8.9 3 Sur 6 Sudeste 0 -- -- 100
2019-07-30 01:00:00 9.1 3 Noroeste 13 Noroeste 0 -- -- 100
2019-07-30 00:00:00 9.6 6 Noroeste 10 Norte 0 -- -- 100
2019-07-29 23:00:00 9.9 3 Nordeste 11 Noroeste 0 -- -- 100
2019-07-29 22:00:00 10.7 6 Noroeste 11 Noroeste 0 -- -- 100
2019-07-29 21:00:00 12 3 Noroeste 19 Norte 0 -- -- 98
2019-07-29 20:00:00 17.2 12 Noroeste 45 Noroeste 0 -- -- 72
2019-07-29 19:00:00 19.6 18 Norte 43 Norte 0 -- -- 49
2019-07-29 18:00:00 19.9 28 Norte 55 Norte 0 -- -- 47
2019-07-29 17:00:00 19.8 24 Norte 46 Noroeste 0 -- -- 47
2019-07-29 16:00:00 19.8 18 Norte 43 Norte 0 -- -- 44
2019-07-29 15:00:00 19.3 15 Nordeste 39 Sudeste 0 -- -- 41
2019-07-29 14:00:00 19 12 Norte 37 Sudeste 0 -- -- 46
2019-07-29 13:00:00 18.1 13 Sudeste 39 Sur 0 -- -- 46
2019-07-29 12:00:00 17.8 11 Nordeste 26 Nordeste 0 -- -- 41
2019-07-29 11:00:00 16.9 8 Noroeste 22 Sudeste 0 -- -- 45
2019-07-29 10:00:00 16.6 13 Sudeste 30 Sudeste 0 -- -- 42
2019-07-29 09:00:00 15.5 8 Este 30 Este 0 -- -- 45
2019-07-29 08:00:00 14.8 14 Nordeste 30 Norte 0 -- -- 43
2019-07-29 07:00:00 14.7 10 Nordeste 24 Noroeste 0 -- -- 42
2019-07-29 06:00:00 14.8 7 Este 17 Sur 0 -- -- 43
2019-07-29 05:00:00 15 8 Nordeste 26 Norte 0 -- -- 44
2019-07-29 04:00:00 15.5 15 Norte 30 Norte 0 -- -- 42
2019-07-29 03:00:00 15.4 12 Noroeste 36 Norte 0 -- -- 41
2019-07-29 02:00:00 15.2 10 Norte 42 Noroeste 0 -- -- 42
2019-07-29 01:00:00 16 11 Norte 44 Noroeste 0 -- -- 34
2019-07-29 00:00:00 14.8 13 Norte 26 Norte 0 -- -- 46
2019-07-28 23:00:00 14.7 10 Norte 35 Norte 0 -- -- 45
2019-07-28 22:00:00 13.8 4 Nordeste 17 Norte 0 -- -- 56
2019-07-28 21:00:00 15.8 6 Noroeste 12 Noroeste 0 -- -- 55
2019-07-28 20:00:00 16.2 6 Noroeste 13 Noroeste 0 -- -- 65
2019-07-28 19:00:00 15.6 5 Noroeste 12 Noroeste 0 -- -- 70
2019-07-28 18:00:00 14.8 7 Noroeste 13 Noroeste 0 -- -- 74
2019-07-28 17:00:00 15 8 Noroeste 13 Noroeste 0 -- -- 75
2019-07-28 16:00:00 15.2 9 Noroeste 17 Norte 0 -- -- 74
2019-07-28 15:00:00 14 9 Noroeste 15 Noroeste 0 -- -- 75
2019-07-28 14:00:00 13.2 9 Noroeste 15 Noroeste 0 -- -- 76
2019-07-28 13:00:00 11.6 9 Noroeste 14 Noroeste 0 -- -- 83
2019-07-28 12:00:00 10.1 7 Noroeste 12 Noroeste 0 -- -- 87
2019-07-28 11:00:00 8.8 6 Norte 10 Este 0 -- -- 93
2019-07-28 10:00:00 6.8 3 Norte 9 Oeste 0 -- -- 100
2019-07-28 09:00:00 6 2 Noroeste 9 Oeste 0 -- -- 100
2019-07-28 08:00:00 5.9 3 Norte 16 Sudeste 0 -- -- 100
2019-07-28 07:00:00 5.3 4 Sudeste 10 Sudeste 0 -- -- 100
2019-07-28 06:00:00 6.3 3 Noroeste 6 Noroeste 0 -- -- 100
2019-07-28 05:00:00 6.3 4 Noroeste 11 Oeste 0 -- -- 100
2019-07-28 04:00:00 6.5 4 Noroeste 13 Norte 0 -- -- 100
2019-07-28 03:00:00 6.3 5 Nordeste 22 Noroeste 0 -- -- 100
2019-07-28 02:00:00 6.8 9 Noroeste 29 Noroeste 0.6 -- -- 100
2019-07-28 01:00:00 7.3 7 Noroeste 22 Noroeste 0.4 -- -- 100
2019-07-28 00:00:00 7.2 12 Noroeste 29 Noroeste 0 -- -- 100
2019-07-27 23:00:00 7.6 10 Noroeste 21 Noroeste 0.6 -- -- 100
2019-07-26 12:00:00 -- -- -- -- -- -- -- -- --
2019-07-26 11:00:00 13 6 Noroeste 13 Noroeste 0 -- -- 99
2019-07-26 10:00:00 15.1 6 Este 22 Sudeste 0 -- -- 77
2019-07-26 09:00:00 15.9 20 Sudeste 28 Sudeste 0 -- -- 66
2019-07-26 08:00:00 15.7 17 Sudeste 36 Sudeste 0 -- -- 68
2019-07-26 07:00:00 13.1 6 Norte 21 Sudeste 0 -- -- 97
2019-07-26 06:00:00 16.8 12 Sudeste 33 Sudeste 0 -- -- 59
2019-07-26 05:00:00 17.6 29 Sudeste 49 Sudeste 0.2 -- -- 51
2019-07-26 04:00:00 13.9 22 Sudeste 42 Sudeste 0.2 -- -- 99
2019-07-26 03:00:00 13.7 4 Este 12 Noroeste 0 -- -- 100
2019-07-26 02:00:00 13.5 3 Nordeste 7 Sudeste 0 -- -- 100
2019-07-26 01:00:00 13.5 8 Sudeste 12 Sudeste 0 -- -- 100
2019-07-26 00:00:00 13.9 4 Norte 14 Noroeste 0 -- -- 99
2019-07-25 23:00:00 15.2 5 Sudeste 16 Norte 0 -- -- 84
2019-07-25 22:00:00 19.8 5 Sudoeste 17 Norte 0 -- -- 51
2019-07-25 21:00:00 19.8 3 Este 31 Sudeste 0 -- -- 55
2019-07-25 20:00:00 22.1 12 Sur 63 Sur 1 -- -- 52
2019-07-25 19:00:00 25 9 Sudeste 22 Sudeste 0 -- -- 36
2019-07-25 18:00:00 25 13 Sudeste 41 Sudeste 2.2 -- -- 39
2019-07-25 17:00:00 25.4 10 Este 30 Sudeste 0 -- -- 47
2019-07-25 16:00:00 26.6 7 Norte 34 Norte 0 -- -- 33
2019-07-25 15:00:00 25.1 7 Norte 21 Sur 0 -- -- 41
2019-07-25 14:00:00 23.4 4 Noroeste 17 Noroeste 0 -- -- 53
2019-07-25 13:00:00 23.2 13 Noroeste 19 Noroeste 0 -- -- 52
2019-07-25 12:00:00 23 7 Noroeste 21 Oeste 0 -- -- 51
2019-07-25 11:00:00 24.1 8 Norte 31 Sudeste 0 -- -- 40
2019-07-25 10:00:00 23.5 10 Este 36 Sudeste 0 -- -- 40
2019-07-25 09:00:00 21 8 Sudeste 27 Sudeste 0 -- -- 42
2019-07-25 08:00:00 21.2 14 Sur 35 Sudeste 0 -- -- 40
2019-07-25 07:00:00 20.2 8 Norte 31 Sudeste 0 -- -- 41
2019-07-25 06:00:00 21.2 18 Sudeste 42 Sudeste 0 -- -- 37
2019-07-25 05:00:00 21.7 23 Sudeste 47 Sudeste 0 -- -- 35
2019-07-25 04:00:00 22.4 21 Sudeste 37 Sudeste 0 -- -- 31
2019-07-25 03:00:00 22.4 17 Sur 36 Sur 0 -- -- 34
2019-07-25 02:00:00 22.8 14 Sudeste 25 Este 0 -- -- 35
2019-07-25 01:00:00 23.7 17 Sudeste 41 Sudeste 0 -- -- 33
2019-07-25 00:00:00 24.2 23 Sudeste 41 Sudeste 0 -- -- 33
2019-07-24 23:00:00 24.4 12 Este 24 Sudeste 0 -- -- 32
2019-07-24 22:00:00 23.5 13 Sudeste 29 Sudeste 0 -- -- 35
2019-07-24 21:00:00 24.6 8 Sur 25 Sur 0 -- -- 35
2019-07-24 20:00:00 25.6 12 Sudeste 21 Sur 0 -- -- 31
2019-07-24 19:00:00 25.4 13 Sur 33 Sur 0 -- -- 33
2019-07-24 18:00:00 25.4 10 Sudoeste 37 Sudoeste 0 -- -- 31
2019-07-24 17:00:00 23.4 17 Sudeste 48 Sudeste 0 -- -- 39
2019-07-24 16:00:00 26.4 9 Nordeste 33 Sur 0 -- -- 34
2019-07-24 15:00:00 25.6 11 Norte 26 Noroeste 0 -- -- 37
2019-07-24 14:00:00 24.9 9 Noroeste 28 Este 0 -- -- 38
2019-07-24 13:00:00 24.3 8 Norte 22 Este 0 -- -- 38
2019-07-24 12:00:00 23.6 7 Este 23 Sudeste 0 -- -- 37
2019-07-24 11:00:00 22.2 12 Este 25 Sudeste 0 -- -- 39
2019-07-24 10:00:00 22.3 8 Sudeste 33 Sur 0 -- -- 37
2019-07-24 09:00:00 21 23 Sudeste 43 Sudeste 0 -- -- 39
2019-07-24 08:00:00 20.6 22 Sudeste 42 Sudeste 0 -- -- 38
2019-07-24 07:00:00 21.1 26 Sudeste 49 Sur 0 -- -- 35
2019-07-24 06:00:00 20.8 27 Sudeste 53 Este 0 -- -- 37
2019-07-24 05:00:00 20.5 21 Sudeste 42 Sudeste 0 -- -- 40
2019-07-24 04:00:00 20.8 18 Sudeste 37 Sudeste 0 -- -- 40
2019-07-24 03:00:00 18.2 16 Sudeste 23 Sudeste 0 -- -- 54
2019-07-24 02:00:00 17.5 6 Sudeste 22 Sudeste 0 -- -- 59
2019-07-24 01:00:00 18.3 21 Sudeste 33 Sudeste 0 -- -- 54
2019-07-24 00:00:00 17.7 10 Sudeste 37 Sur 0 -- -- 61
2019-07-23 23:00:00 18.2 27 Sudeste 53 Sudeste 1.2 -- -- 60
2019-07-23 22:00:00 21.3 25 Sudeste 32 Sudeste 0 -- -- 39
2019-07-23 21:00:00 22.6 10 Norte 25 Sudoeste 0 -- -- 34
2019-07-23 20:00:00 24.3 4 Sudeste 21 Sudeste 0 -- -- 34
2019-07-23 19:00:00 23 5 Nordeste 66 Sudeste 0 -- -- 35
2019-07-23 18:00:00 22.2 21 Sudeste 49 Este 0 -- -- 40
2019-07-23 17:00:00 27 11 Sur 30 Sur 0 -- -- 29
2019-07-23 16:00:00 26.6 12 Sudeste 33 Sur 0 -- -- 33
2019-07-23 15:00:00 25.5 15 Sudeste 37 Noroeste 0 -- -- 37
2019-07-23 14:00:00 25.4 10 Norte 48 Sudeste 0 -- -- 38
2019-07-23 13:00:00 23.6 15 Este 39 Sudeste 0 -- -- 40
2019-07-23 12:00:00 22.5 22 Sudeste 33 Sudeste 0 -- -- 41
2019-07-23 11:00:00 20.4 11 Sudeste 28 Norte 0 -- -- 46
2019-07-23 10:00:00 19.1 18 Norte 55 Sur 0 -- -- 51
2019-07-23 09:00:00 19.5 37 Sur 77 Sur 0 -- -- 39
2019-07-23 08:00:00 20.6 20 Sudeste 37 Sudeste 0 -- -- 34
2019-07-23 07:00:00 21.7 16 Sur 31 Sudeste 0 -- -- 36
2019-07-23 06:00:00 20.1 26 Sudeste 34 Sudeste 0 -- -- 42
2019-07-23 05:00:00 20.7 20 Sudeste 27 Sudeste 0 -- -- 39
2019-07-23 04:00:00 21.6 7 Sur 22 Sur 0 -- -- 39
2019-07-23 03:00:00 22.5 19 Sur 27 Sur 0 -- -- 34
2019-07-23 02:00:00 23.3 18 Sur 26 Sur 0 -- -- 34
2019-07-23 01:00:00 24.2 15 Sur 28 Sur 0 -- -- 34
2019-07-23 00:00:00 24.2 14 Sur 23 Sur 0 -- -- 32
2019-07-22 23:00:00 24.1 8 Este 23 Este 0 -- -- 31
2019-07-22 22:00:00 24.1 9 Este 37 Este 0 -- -- 32
2019-07-22 21:00:00 25 16 Este 38 Este 0 -- -- 33
2019-07-22 20:00:00 26.9 14 Este 31 Este 0 -- -- 31
2019-07-22 19:00:00 27.9 10 Este 27 Este 0 -- -- 30
2019-07-22 18:00:00 27.3 10 Este 30 Sudeste 0 -- -- 29
2019-07-22 17:00:00 26.4 11 Este 23 Sur 0 -- -- 43
2019-07-22 16:00:00 26 10 Este 21 Sudeste 0 -- -- 56
2019-07-22 15:00:00 26.8 8 Este 27 Sur 0 -- -- 41
2019-07-22 14:00:00 26.3 12 Sur 28 Sur 0 -- -- 33
2019-07-22 13:00:00 25.6 16 Sudeste 33 Sudeste 0 -- -- 35
2019-07-22 12:00:00 24.6 20 Sudeste 41 Sudeste 0 -- -- 35
2019-07-22 11:00:00 23.9 23 Sudeste 42 Sudeste 0 -- -- 36
2019-07-22 10:00:00 23.1 27 Sudeste 39 Sur 0 -- -- 37
2019-07-22 09:00:00 22.3 23 Sur 40 Sur 0 -- -- 38
2019-07-22 08:00:00 21.7 31 Sur 45 Sudeste 0 -- -- 38
2019-07-22 07:00:00 21 30 Sudeste 41 Sudeste 0 -- -- 45
2019-07-22 06:00:00 21.9 28 Sur 42 Sur 0 -- -- 43
2019-07-22 05:00:00 21.8 26 Sur 43 Sudeste 0 -- -- 44
2019-07-22 04:00:00 22.5 17 Sudeste 37 Sur 0 -- -- 44
2019-07-22 03:00:00 21.5 16 Este 39 Sudeste 0 -- -- 51
2019-07-22 02:00:00 20.6 25 Sudeste 45 Sudeste 0 -- -- 57
2019-07-22 01:00:00 21.4 18 Sudeste 40 Sur 0 -- -- 52
2019-07-22 00:00:00 21.9 17 Sudeste 38 Este 0 -- -- 45
2019-07-21 23:00:00 21.8 9 Sudeste 29 Sudeste 0 -- -- 49
2019-07-21 22:00:00 20.2 10 Sur 32 Sur 0 -- -- 66
2019-07-21 21:00:00 20.4 19 Sudeste 28 Sudeste 0 -- -- 76
2019-07-21 20:00:00 21.8 12 Este 25 Sudeste 0 -- -- 68
2019-07-21 19:00:00 22 12 Este 24 Este 0 -- -- 70
2019-07-21 18:00:00 22.7 10 Este 21 Sudeste 0 -- -- 77
2019-07-21 17:00:00 22.2 6 Noroeste 14 Noroeste 0 -- -- 78
2019-07-21 16:00:00 21.7 6 Noroeste 13 Noroeste 0 -- -- 79
2019-07-21 15:00:00 20.5 6 Noroeste 13 Noroeste 0 -- -- 85
2019-07-21 14:00:00 19.7 6 Noroeste 17 Noroeste 0 -- -- 84
2019-07-21 13:00:00 21.7 4 Noroeste 11 Oeste 0 -- -- 60
2019-07-21 12:00:00 21.9 5 Noroeste 8 Norte 0 -- -- 64
2019-07-21 11:00:00 21.4 4 Noroeste 6 Norte 0 -- -- 59
2019-07-21 10:00:00 21.1 2 Noroeste 7 Sudeste 0 -- -- 52
2019-07-21 09:00:00 20.1 4 Sur 25 Sudeste 0 -- -- 53
2019-07-21 08:00:00 18.7 19 Sur 30 Sur 0 -- -- 58
2019-07-21 07:00:00 18.5 17 Sur 31 Sudeste 0 -- -- 65
2019-07-21 06:00:00 17.8 26 Sudeste 32 Sudeste 0 -- -- 75
2019-07-21 05:00:00 16.5 17 Sur 22 Sudeste 0 -- -- 94
2019-07-21 04:00:00 12.3 0 Calma 5 Noroeste 0.2 -- -- 100
2019-07-21 03:00:00 12.4 3 Noroeste 7 Noroeste 0 -- -- 100
2019-07-21 02:00:00 12.8 4 Noroeste 7 Noroeste 0 -- -- 100
2019-07-21 01:00:00 13.2 0 Calma 9 Noroeste 0 -- -- 100
2019-07-21 00:00:00 13.4 3 Oeste 8 Norte 0 -- -- 100
2019-07-20 23:00:00 13.9 3 Noroeste 15 Sur 0 -- -- 99
2019-07-20 22:00:00 14.5 3 Sur 9 Oeste 0 -- -- 99
2019-07-20 21:00:00 16.4 3 Noroeste 15 Noroeste 0 -- -- 91
2019-07-20 20:00:00 19.3 5 Noroeste 15 Noroeste 0 -- -- 80
2019-07-20 19:00:00 21.7 10 Noroeste 19 Noroeste 0 -- -- 69
2019-07-20 18:00:00 22.4 7 Noroeste 15 Noroeste 0 -- -- 68
2019-07-20 17:00:00 22.3 10 Noroeste 19 Noroeste 0 -- -- 69
2019-07-20 16:00:00 21.6 8 Noroeste 17 Noroeste 0 -- -- 72
2019-07-20 15:00:00 21.1 7 Noroeste 15 Noroeste 0 -- -- 74
2019-07-20 14:00:00 20.5 11 Noroeste 16 Noroeste 0 -- -- 76
2019-07-20 13:00:00 19.7 6 Norte 13 Noroeste 0 -- -- 78
2019-07-20 12:00:00 19.2 8 Noroeste 24 Sudeste 0 -- -- 76
2019-07-20 11:00:00 21.2 18 Sudeste 30 Sudeste 0 -- -- 47
2019-07-20 10:00:00 21.7 12 Sudeste 26 Sur 0 -- -- 40
2019-07-20 09:00:00 18.1 3 Sur 30 Sur 0 -- -- 54
2019-07-20 08:00:00 20.8 15 Sudeste 31 Sur 0 -- -- 39
2019-07-20 07:00:00 20.2 18 Sur 29 Sur 0 -- -- 41
2019-07-20 06:00:00 19.5 14 Sur 26 Sur 0 -- -- 45
2019-07-20 05:00:00 19.7 20 Sur 25 Sudeste 0 -- -- 48
2019-07-20 04:00:00 18.2 15 Sur 18 Sur 0 -- -- 49
2019-07-20 03:00:00 18.5 10 Sur 15 Sur 0 -- -- 49
2019-07-20 02:00:00 19.2 15 Sur 18 Sur 0 -- -- 49
2019-07-20 01:00:00 20.1 9 Sur 13 Sur 0 -- -- 49
2019-07-20 00:00:00 20.6 5 Sudoeste 18 Norte 0 -- -- 47
2019-07-19 23:00:00 22 9 Sur 27 Sudeste 0 -- -- 46
2019-07-19 22:00:00 22.7 6 Norte 12 Norte 0 -- -- 42
2019-07-19 21:00:00 22.3 6 Sudoeste 22 Este 0 -- -- 55
2019-07-19 20:00:00 22.7 9 Este 22 Sudeste 0 -- -- 52
2019-07-19 19:00:00 24 4 Noroeste 14 Noroeste 0 -- -- 51
2019-07-19 18:00:00 23.8 8 Noroeste 15 Noroeste 0 -- -- 53
2019-07-19 17:00:00 23.1 7 Noroeste 21 Noroeste 0 -- -- 55
2019-07-19 16:00:00 22.3 9 Noroeste 19 Noroeste 0 -- -- 54
2019-07-19 15:00:00 22.9 9 Noroeste 16 Noroeste 0 -- -- 51
2019-07-19 14:00:00 22.1 8 Noroeste 17 Noroeste 0 -- -- 56
2019-07-19 13:00:00 21.9 7 Noroeste 12 Norte 0 -- -- 52
2019-07-19 12:00:00 21.6 4 Noroeste 11 Noroeste 0 -- -- 43
2019-07-19 11:00:00 20.7 3 Norte 6 Noroeste 0 -- -- 47
2019-07-19 10:00:00 20.1 3 Norte 26 Sudeste 0 -- -- 52
2019-07-19 09:00:00 17.2 19 Sudeste 26 Sudeste 0 -- -- 58
2019-07-19 08:00:00 16.3 10 Sudeste 17 Sudeste 0 -- -- 57
2019-07-19 07:00:00 14.9 4 Sudeste 12 Sudeste 0 -- -- 56
2019-07-19 06:00:00 15.3 8 Este 12 Sudeste 0 -- -- 52
2019-07-19 05:00:00 15.2 8 Sudeste 13 Este 0 -- -- 54
2019-07-19 04:00:00 15.2 7 Sudeste 10 Sudeste 0 -- -- 55
2019-07-19 03:00:00 13.6 5 Sudeste 10 Sur 0 -- -- 62
2019-07-19 02:00:00 13.6 4 Este 18 Este 0 -- -- 62
2019-07-19 01:00:00 14.2 9 Sudeste 19 Este 0 -- -- 62
2019-07-19 00:00:00 12.9 7 Este 22 Sudeste 0 -- -- 69
2019-07-18 23:00:00 12.6 3 Sudeste 17 Este 0 -- -- 77
2019-07-18 22:00:00 13.9 3 Nordeste 8 Norte 0 -- -- 76
2019-07-18 21:00:00 16 4 Noroeste 12 Noroeste 0 -- -- 71
2019-07-18 20:00:00 17.2 8 Noroeste 13 Noroeste 0 -- -- 65
2019-07-18 19:00:00 18.2 9 Noroeste 15 Noroeste 0 -- -- 61
2019-07-18 18:00:00 18.5 10 Noroeste 18 Noroeste 0 -- -- 59
2019-07-18 17:00:00 18.6 7 Noroeste 18 Noroeste 0 -- -- 61
2019-07-18 16:00:00 18.3 9 Noroeste 14 Noroeste 0 -- -- 66
2019-07-18 15:00:00 17.9 10 Noroeste 15 Norte 0 -- -- 71
2019-07-18 14:00:00 17.2 6 Noroeste 14 Norte 0 -- -- 76
2019-07-18 13:00:00 15.6 5 Noroeste 13 Noroeste 0 -- -- 83
2019-07-18 12:00:00 15.1 5 Noroeste 14 Noroeste 0 -- -- 84
2019-07-18 11:00:00 17.4 11 Norte 22 Noroeste 0 -- -- 64
2019-07-18 10:00:00 13.9 6 Nordeste 17 Noroeste 0 -- -- 86
2019-07-18 09:00:00 13.5 3 Este 11 Este 0 -- -- 71
2019-07-18 08:00:00 11.1 7 Este 10 Este 0 -- -- 97
2019-07-18 07:00:00 8.3 2 Nordeste 10 Noroeste 0 -- -- 100
2019-07-18 06:00:00 8.7 4 Sudeste 10 Noroeste 0 -- -- 100
2019-07-18 05:00:00 8.3 4 Sudeste 10 Sudeste 0 -- -- 100
2019-07-18 04:00:00 8.6 4 Este 9 Sudeste 0 -- -- 100
2019-07-18 03:00:00 8.9 2 Nordeste 9 Sudeste 0 -- -- 100
2019-07-18 02:00:00 9.1 2 Nordeste 10 Sudeste 0 -- -- 100
2019-07-18 01:00:00 9.7 4 Sudeste 12 Sudeste 0 -- -- 100
2019-07-18 00:00:00 10.1 4 Este 8 Este 0 -- -- 100